createdAt,value
2019-06-23T00:00:30.816Z,19.00
2019-06-23T00:02:59.711Z,19.00
2019-06-23T00:05:28.555Z,18.90
2019-06-23T00:07:57.451Z,18.90
2019-06-23T00:10:27.043Z,18.80
2019-06-23T00:12:55.995Z,18.80
2019-06-23T00:15:24.893Z,18.60
2019-06-23T00:17:53.776Z,18.60
2019-06-23T00:20:22.616Z,18.60
2019-06-23T00:22:51.510Z,18.50
2019-06-23T00:25:20.400Z,18.40
2019-06-23T00:27:49.245Z,18.40
2019-06-23T00:30:18.231Z,18.30
2019-06-23T00:32:47.127Z,18.30
2019-06-23T00:35:15.968Z,18.20
2019-06-23T00:37:44.865Z,18.20
2019-06-23T00:40:14.253Z,18.10
2019-06-23T00:42:43.103Z,18.10
2019-06-23T00:45:12.899Z,18.10
2019-06-23T00:47:41.791Z,18.10
2019-06-23T00:50:11.044Z,18.20
2019-06-23T00:52:40.231Z,18.10
2019-06-23T00:55:09.078Z,18.20
2019-06-23T00:57:37.927Z,18.20
2019-06-23T01:00:07.340Z,18.20
2019-06-23T01:02:37.795Z,18.20
2019-06-23T01:05:08.443Z,18.20
2019-06-23T01:07:37.331Z,18.30
2019-06-23T01:10:07.922Z,18.30
2019-06-23T01:12:36.778Z,18.30
2019-06-23T01:15:08.626Z,18.30
2019-06-23T01:17:37.515Z,18.30
2019-06-23T01:20:08.736Z,18.30
2019-06-23T01:22:37.728Z,18.30
2019-06-23T01:25:08.183Z,18.30
2019-06-23T01:27:37.032Z,18.30
2019-06-23T01:30:07.719Z,18.30
2019-06-23T01:32:36.616Z,18.30
2019-06-23T01:35:09.689Z,18.30
2019-06-23T01:37:38.683Z,18.30
2019-06-23T01:40:09.631Z,18.20
2019-06-23T01:42:38.620Z,18.20
2019-06-23T01:45:09.295Z,18.20
2019-06-23T01:47:38.207Z,18.20
2019-06-23T01:50:08.319Z,18.20
2019-06-23T01:52:37.210Z,18.20
2019-06-23T01:55:07.163Z,18.20
2019-06-23T01:57:36.056Z,18.10
2019-06-23T02:00:09.467Z,18.10
2019-06-23T02:02:38.365Z,18.10
2019-06-23T02:05:08.755Z,18.00
2019-06-23T02:07:37.600Z,18.00
2019-06-23T02:10:09.867Z,18.00
2019-06-23T02:12:38.743Z,18.00
2019-06-23T02:15:08.391Z,17.90
2019-06-23T02:17:37.286Z,17.90
2019-06-23T02:20:08.642Z,17.80
2019-06-23T02:22:39.064Z,17.80
2019-06-23T02:25:08.254Z,17.70
2019-06-23T02:27:37.150Z,17.70
2019-06-23T02:30:08.308Z,17.60
2019-06-23T02:32:37.196Z,17.60
2019-06-23T02:35:06.577Z,17.60
2019-06-23T02:37:35.432Z,17.60
2019-06-23T02:40:07.025Z,17.60
2019-06-23T02:42:36.320Z,17.60
2019-06-23T02:45:06.475Z,17.50
2019-06-23T02:47:39.371Z,17.50
2019-06-23T02:50:11.037Z,17.50
2019-06-23T02:52:50.280Z,17.40
2019-06-23T02:55:23.555Z,17.40
2019-06-23T02:58:06.290Z,17.40
2019-06-23T03:00:39.714Z,17.40
2019-06-23T03:03:08.664Z,17.30
2019-06-23T03:05:37.595Z,17.30
2019-06-23T03:08:06.442Z,17.30
2019-06-23T03:10:35.331Z,17.30
2019-06-23T03:13:04.230Z,17.20
2019-06-23T03:15:33.074Z,17.20
2019-06-23T03:18:01.970Z,17.20
2019-06-23T03:20:30.851Z,17.20
2019-06-23T03:22:59.695Z,17.20
2019-06-23T03:25:49.901Z,17.10
2019-06-23T03:28:18.796Z,17.10
2019-06-23T03:30:47.940Z,17.10
2019-06-23T03:33:16.930Z,17.10
2019-06-23T03:35:47.661Z,17.00
2019-06-23T03:38:17.215Z,17.00
2019-06-23T03:40:46.507Z,17.00
2019-06-23T03:43:15.397Z,17.10
2019-06-23T03:45:44.252Z,17.00
2019-06-23T03:48:13.141Z,17.10
2019-06-23T03:50:42.019Z,17.00
2019-06-23T03:53:10.871Z,17.00
2019-06-23T03:55:39.764Z,17.00
2019-06-23T03:58:08.651Z,17.00
2019-06-23T04:00:37.660Z,17.00
2019-06-23T04:03:06.558Z,17.00
2019-06-23T04:05:50.038Z,17.00
2019-06-23T04:08:05.945Z,17.10
2019-06-23T04:10:34.836Z,17.10
2019-06-23T04:13:03.736Z,17.10
2019-06-23T04:15:32.589Z,17.10
2019-06-23T04:18:01.474Z,17.20
2019-06-23T04:20:36.172Z,17.20
2019-06-23T04:23:05.071Z,17.20
2019-06-23T04:25:33.957Z,17.20
2019-06-23T04:28:02.809Z,17.30
2019-06-23T04:30:31.697Z,17.30
2019-06-23T04:33:00.596Z,17.30
2019-06-23T04:35:29.448Z,17.40
2019-06-23T04:37:58.538Z,17.40
2019-06-23T04:40:27.527Z,17.40
2019-06-23T04:42:56.382Z,17.50
2019-06-23T04:45:25.276Z,17.50
2019-06-23T04:47:54.179Z,17.60
2019-06-23T04:50:23.029Z,17.60
2019-06-23T04:52:51.919Z,17.70
2019-06-23T04:55:20.821Z,17.70
2019-06-23T04:57:49.662Z,17.70
2019-06-23T05:00:18.559Z,17.80
2019-06-23T05:02:47.453Z,17.80
2019-06-23T05:05:16.301Z,17.80
2019-06-23T05:07:45.201Z,17.80
2019-06-23T05:10:14.123Z,17.80
2019-06-23T05:12:43.039Z,17.90
2019-06-23T05:15:11.923Z,17.90
2019-06-23T05:17:40.815Z,17.90
2019-06-23T05:20:10.055Z,18.00
2019-06-23T05:22:38.964Z,18.00
2019-06-23T05:25:08.748Z,18.10
2019-06-23T05:27:37.611Z,18.10
2019-06-23T05:30:08.703Z,18.20
2019-06-23T05:32:37.603Z,18.30
2019-06-23T05:35:08.762Z,18.30
2019-06-23T05:37:37.655Z,18.30
2019-06-23T05:40:08.143Z,18.40
2019-06-23T05:42:36.995Z,18.40
2019-06-23T05:45:08.230Z,18.50
2019-06-23T05:47:37.156Z,18.50
2019-06-23T05:50:06.699Z,18.50
2019-06-23T05:52:35.595Z,18.60
2019-06-23T05:55:05.295Z,18.60
2019-06-23T05:57:34.143Z,18.60
2019-06-23T06:00:03.344Z,18.70
2019-06-23T06:02:32.240Z,18.70
2019-06-23T06:05:01.101Z,18.80
2019-06-23T06:07:30.003Z,18.80
2019-06-23T06:10:00.672Z,18.90
2019-06-23T06:12:29.376Z,18.90
2019-06-23T06:14:58.275Z,19.00
2019-06-23T06:17:27.164Z,19.10
2019-06-23T06:19:56.045Z,19.10
2019-06-23T06:22:24.912Z,19.10
2019-06-23T06:24:53.803Z,19.20
2019-06-23T06:27:22.667Z,19.20
2019-06-23T06:29:51.601Z,19.30
2019-06-23T06:32:20.540Z,19.40
2019-06-23T06:34:49.411Z,19.40
2019-06-23T06:37:18.295Z,19.50
2019-06-23T06:39:47.187Z,19.50
2019-06-23T06:42:16.041Z,19.60
2019-06-23T06:44:44.936Z,19.60
2019-06-23T06:47:13.835Z,19.60
2019-06-23T06:49:42.680Z,19.70
2019-06-23T06:52:11.572Z,19.70
2019-06-23T06:54:40.464Z,19.80
2019-06-23T06:57:09.334Z,19.90
2019-06-23T06:59:38.240Z,19.90
2019-06-23T07:02:07.645Z,19.90
2019-06-23T07:04:36.505Z,20.00
2019-06-23T07:07:05.616Z,20.00
2019-06-23T07:09:34.492Z,20.10
2019-06-23T07:12:03.386Z,20.20
2019-06-23T07:14:32.296Z,20.30
2019-06-23T07:17:01.211Z,20.30
2019-06-23T07:19:30.092Z,20.30
2019-06-23T07:21:59.022Z,20.30
2019-06-23T07:24:27.941Z,20.50
2019-06-23T07:26:56.795Z,20.50
2019-06-23T07:29:25.700Z,20.60
2019-06-23T07:32:02.739Z,20.70
2019-06-23T07:34:31.949Z,20.70
2019-06-23T07:37:00.942Z,20.80
2019-06-23T07:39:29.881Z,20.90
2019-06-23T07:41:58.927Z,20.90
2019-06-23T07:44:27.845Z,21.00
2019-06-23T07:46:56.740Z,21.00
2019-06-23T07:49:25.648Z,21.10
2019-06-23T07:51:54.568Z,21.10
2019-06-23T07:54:23.429Z,21.20
2019-06-23T07:56:52.364Z,21.30
2019-06-23T07:59:21.282Z,21.30
2019-06-23T08:01:50.177Z,21.40
2019-06-23T08:04:19.077Z,21.50
2019-06-23T08:06:47.985Z,21.50
2019-06-23T08:09:16.857Z,21.60
2019-06-23T08:11:45.765Z,21.70
2019-06-23T08:14:14.691Z,21.80
2019-06-23T08:16:43.552Z,21.90
2019-06-23T08:19:12.476Z,22.00
2019-06-23T08:21:41.373Z,22.00
2019-06-23T08:24:10.259Z,22.10
2019-06-23T08:26:39.148Z,22.10
2019-06-23T08:29:08.079Z,22.20
2019-06-23T08:31:36.943Z,22.30
2019-06-23T08:34:05.853Z,22.40
2019-06-23T08:36:34.735Z,22.40
2019-06-23T08:39:03.922Z,22.50
2019-06-23T08:41:32.797Z,22.60
2019-06-23T08:44:01.717Z,22.70
2019-06-23T08:46:30.584Z,22.80
2019-06-23T08:48:59.521Z,22.90
2019-06-23T08:51:28.444Z,22.90
2019-06-23T08:53:58.345Z,23.00
2019-06-23T08:56:27.263Z,23.00
2019-06-23T08:58:56.124Z,23.10
2019-06-23T09:01:25.044Z,23.20
2019-06-23T09:03:53.950Z,23.30
2019-06-23T09:06:22.802Z,23.30
2019-06-23T09:08:51.717Z,23.40
2019-06-23T09:11:20.628Z,23.50
2019-06-23T09:13:49.496Z,23.50
2019-06-23T09:16:18.408Z,23.60
2019-06-23T09:18:47.304Z,23.60
2019-06-23T09:21:16.148Z,23.60
2019-06-23T09:23:47.400Z,23.70
2019-06-23T09:26:16.284Z,23.70
2019-06-23T09:28:45.145Z,23.70
2019-06-23T09:31:19.271Z,23.80
2019-06-23T09:33:48.158Z,23.80
2019-06-23T09:36:17.036Z,23.90
2019-06-23T09:38:48.108Z,23.90
2019-06-23T09:41:16.427Z,24.00
2019-06-23T09:43:45.278Z,24.10
2019-06-23T09:46:14.181Z,24.10
2019-06-23T09:48:43.062Z,24.20
2019-06-23T09:51:11.907Z,24.30
2019-06-23T09:53:42.103Z,24.30
2019-06-23T09:56:11.093Z,24.30
2019-06-23T09:58:39.943Z,24.30
2019-06-23T10:01:08.830Z,24.40
2019-06-23T10:03:37.721Z,24.40
2019-06-23T10:06:06.572Z,24.40
2019-06-23T10:08:35.455Z,24.50
2019-06-23T10:11:04.343Z,24.50
2019-06-23T10:13:33.183Z,24.50
2019-06-23T10:16:02.113Z,24.60
2019-06-23T10:18:31.012Z,24.60
2019-06-23T10:20:59.840Z,24.60
2019-06-23T10:23:29.859Z,24.70
2019-06-23T10:25:58.747Z,24.80
2019-06-23T10:28:27.607Z,24.80
2019-06-23T10:30:56.503Z,25.00
2019-06-23T10:33:25.387Z,25.00
2019-06-23T10:35:54.239Z,25.10
2019-06-23T10:38:23.130Z,25.10
2019-06-23T10:40:51.975Z,25.20
2019-06-23T10:43:20.872Z,25.20
2019-06-23T10:45:49.723Z,25.20
2019-06-23T10:48:18.629Z,25.20
2019-06-23T10:50:47.755Z,25.20
2019-06-23T10:53:17.623Z,25.20
2019-06-23T10:55:46.462Z,25.20
2019-06-23T10:58:15.373Z,25.30
2019-06-23T11:00:44.211Z,25.40
2019-06-23T11:03:22.175Z,25.40
2019-06-23T11:05:51.723Z,25.50
2019-06-23T11:08:20.811Z,25.60
2019-06-23T11:10:49.651Z,25.70
2019-06-23T11:13:18.740Z,25.70
2019-06-23T11:15:48.408Z,25.70
2019-06-23T11:18:17.235Z,25.70
2019-06-23T11:20:46.232Z,25.70
2019-06-23T11:23:15.091Z,25.70
2019-06-23T11:25:44.097Z,25.60
2019-06-23T11:28:13.019Z,25.60
2019-06-23T11:30:44.564Z,25.70
2019-06-23T11:33:12.488Z,25.80
2019-06-23T11:35:41.345Z,25.80
2019-06-23T11:38:10.238Z,25.80
2019-06-23T11:40:39.082Z,25.80
2019-06-23T11:43:07.971Z,25.80
2019-06-23T11:45:36.823Z,25.80
2019-06-23T11:48:05.701Z,25.70
2019-06-23T11:50:34.552Z,25.80
2019-06-23T11:53:03.437Z,25.80
2019-06-23T11:55:32.283Z,25.90
2019-06-23T11:58:01.192Z,26.00
2019-06-23T12:00:30.023Z,26.00
2019-06-23T12:02:58.911Z,26.10
2019-06-23T12:05:27.772Z,26.20
2019-06-23T12:07:56.651Z,26.20
2019-06-23T12:10:25.506Z,26.20
2019-06-23T12:12:54.439Z,26.20
2019-06-23T12:15:23.240Z,26.30
2019-06-23T12:17:52.143Z,26.40
2019-06-23T12:20:20.987Z,26.50
2019-06-23T12:22:49.882Z,26.60
2019-06-23T12:25:18.719Z,26.70
2019-06-23T12:27:47.619Z,26.80
2019-06-23T12:30:16.472Z,26.80
2019-06-23T12:32:45.377Z,26.80
2019-06-23T12:35:14.508Z,26.80
2019-06-23T12:37:43.404Z,26.80
2019-06-23T12:40:23.958Z,26.90
2019-06-23T12:42:43.579Z,26.80
2019-06-23T12:45:12.833Z,26.70
2019-06-23T12:47:41.755Z,26.50
2019-06-23T12:50:11.170Z,26.30
2019-06-23T12:52:40.062Z,26.20
2019-06-23T12:55:10.302Z,26.00
2019-06-23T12:57:39.197Z,25.90
2019-06-23T13:00:09.372Z,25.90
2019-06-23T13:02:38.237Z,25.90
2019-06-23T13:05:07.302Z,26.00
2019-06-23T13:07:36.148Z,26.10
2019-06-23T13:10:06.839Z,26.20
2019-06-23T13:12:35.682Z,26.40
2019-06-23T13:15:07.189Z,26.50
2019-06-23T13:17:36.032Z,26.60
2019-06-23T13:20:06.719Z,26.60
2019-06-23T13:22:35.664Z,26.70
2019-06-23T13:25:05.528Z,26.80
2019-06-23T13:27:34.377Z,26.90
2019-06-23T13:30:03.880Z,27.00
2019-06-23T13:32:32.754Z,27.00
2019-06-23T13:35:01.674Z,27.00
2019-06-23T13:37:30.619Z,27.10
2019-06-23T13:39:59.504Z,27.20
2019-06-23T13:42:28.369Z,27.30
2019-06-23T13:45:00.733Z,27.40
2019-06-23T13:47:27.786Z,27.60
2019-06-23T13:49:56.671Z,27.70
2019-06-23T13:52:25.527Z,27.80
2019-06-23T13:54:56.180Z,27.80
2019-06-23T13:57:25.028Z,27.90
2019-06-23T13:59:54.832Z,27.90
2019-06-23T14:02:23.867Z,27.90
2019-06-23T14:04:52.796Z,27.90
2019-06-23T14:07:21.607Z,27.90
2019-06-23T14:09:50.504Z,27.90
2019-06-23T14:12:19.390Z,27.90
2019-06-23T14:14:48.245Z,27.90
2019-06-23T14:17:17.147Z,27.90
2019-06-23T14:19:46.003Z,27.80
2019-06-23T14:22:14.906Z,27.70
2019-06-23T14:24:43.749Z,27.70
2019-06-23T14:27:12.664Z,27.70
2019-06-23T14:29:41.529Z,27.70
2019-06-23T14:32:10.437Z,27.60
2019-06-23T14:34:39.297Z,27.60
2019-06-23T14:37:08.204Z,27.50
2019-06-23T14:39:37.153Z,27.30
2019-06-23T14:42:05.996Z,27.20
2019-06-23T14:44:34.909Z,27.10
2019-06-23T14:47:03.813Z,27.00
2019-06-23T14:49:32.681Z,27.00
2019-06-23T14:52:01.591Z,27.00
2019-06-23T14:54:30.466Z,27.00
2019-06-23T14:56:59.368Z,27.10
2019-06-23T14:59:28.236Z,27.10
2019-06-23T15:01:57.136Z,27.00
2019-06-23T15:04:26.048Z,26.90
2019-06-23T15:06:54.912Z,26.80
2019-06-23T15:09:23.808Z,26.70
2019-06-23T15:11:52.687Z,26.80
2019-06-23T15:14:21.585Z,26.80
2019-06-23T15:16:50.465Z,26.80
2019-06-23T15:19:19.388Z,26.90
2019-06-23T15:21:48.281Z,26.90
2019-06-23T15:24:18.280Z,26.90
2019-06-23T15:26:47.125Z,26.90
2019-06-23T15:29:16.032Z,26.90
2019-06-23T15:31:44.932Z,26.80
2019-06-23T15:34:13.897Z,26.80
2019-06-23T15:36:42.781Z,26.60
2019-06-23T15:39:11.681Z,26.60
2019-06-23T15:41:40.540Z,26.60
2019-06-23T15:44:09.460Z,26.50
2019-06-23T15:46:38.323Z,26.50
2019-06-23T15:49:07.371Z,26.40
2019-06-23T15:51:43.082Z,26.30
2019-06-23T15:54:08.110Z,26.20
2019-06-23T15:56:36.976Z,26.20
2019-06-23T15:59:05.889Z,26.30
2019-06-23T16:01:34.784Z,26.30
2019-06-23T16:04:03.685Z,26.20
2019-06-23T16:06:32.546Z,26.00
2019-06-23T16:09:01.686Z,26.00
2019-06-23T16:11:30.534Z,25.90
2019-06-23T16:14:00.104Z,25.90
2019-06-23T16:16:30.204Z,25.70
2019-06-23T16:19:00.214Z,25.70
2019-06-23T16:21:29.846Z,25.60
2019-06-23T16:23:59.296Z,25.50
2019-06-23T16:26:28.784Z,25.40
2019-06-23T16:29:00.875Z,25.40
2019-06-23T16:31:30.271Z,25.30
2019-06-23T16:34:00.451Z,25.30
2019-06-23T16:36:30.218Z,25.20
2019-06-23T16:39:01.051Z,25.20
2019-06-23T16:41:30.275Z,25.10
2019-06-23T16:44:01.214Z,25.00
2019-06-23T16:46:31.178Z,24.90
2019-06-23T16:49:00.373Z,24.90
2019-06-23T16:51:31.276Z,24.90
2019-06-23T16:54:00.892Z,24.80
2019-06-23T16:56:30.822Z,24.70
2019-06-23T16:59:02.153Z,24.60
2019-06-23T17:01:32.038Z,24.60
2019-06-23T17:04:01.129Z,24.60
2019-06-23T17:06:32.935Z,24.60
2019-06-23T17:09:03.715Z,24.60
2019-06-23T17:11:33.413Z,24.50
2019-06-23T17:14:04.735Z,24.50
2019-06-23T17:16:34.559Z,24.50
2019-06-23T17:19:04.536Z,24.50
2019-06-23T17:21:33.959Z,24.50
2019-06-23T17:24:03.323Z,24.50
2019-06-23T17:26:32.178Z,24.50
2019-06-23T17:29:01.991Z,24.50
2019-06-23T17:31:31.967Z,24.50
2019-06-23T17:34:01.933Z,24.50
2019-06-23T17:36:33.598Z,24.50
2019-06-23T17:39:03.373Z,24.50
2019-06-23T17:41:35.214Z,24.50
2019-06-23T17:44:05.038Z,24.50
2019-06-23T17:46:37.057Z,24.50
2019-06-23T17:49:06.909Z,24.50
2019-06-23T17:51:37.559Z,24.50
2019-06-23T17:54:06.940Z,24.40
2019-06-23T17:56:36.529Z,24.40
2019-06-23T17:59:06.005Z,24.40
2019-06-23T18:01:35.808Z,24.40
2019-06-23T18:04:05.381Z,24.40
2019-06-23T18:06:35.529Z,24.30
2019-06-23T18:09:05.637Z,24.40
2019-06-23T18:11:35.391Z,24.30
2019-06-23T18:14:05.110Z,24.30
2019-06-23T18:16:34.838Z,24.30
2019-06-23T18:19:04.736Z,24.30
2019-06-23T18:21:37.408Z,24.30
2019-06-23T18:24:07.261Z,24.20
2019-06-23T18:26:37.337Z,24.20
2019-06-23T18:29:08.306Z,24.20
2019-06-23T18:31:37.360Z,24.20
2019-06-23T18:34:11.030Z,24.10
2019-06-23T18:36:40.036Z,24.10
2019-06-23T18:39:09.388Z,24.10
2019-06-23T18:41:56.810Z,24.00
2019-06-23T18:44:27.207Z,23.90
2019-06-23T18:46:56.533Z,23.90
2019-06-23T18:49:26.165Z,23.80
2019-06-23T18:51:55.126Z,23.80
2019-06-23T18:54:25.005Z,23.70
2019-06-23T18:56:56.848Z,23.70
2019-06-23T18:59:26.589Z,23.60
2019-06-23T19:01:55.487Z,23.50
2019-06-23T19:04:24.983Z,23.40
2019-06-23T19:06:54.072Z,23.40
2019-06-23T19:09:22.957Z,23.30
2019-06-23T19:11:51.891Z,23.30
2019-06-23T19:14:21.472Z,23.20
2019-06-23T19:16:51.029Z,23.20
2019-06-23T19:19:20.605Z,23.20
2019-06-23T19:21:51.422Z,23.10
2019-06-23T19:24:20.568Z,23.10
2019-06-23T19:26:50.425Z,23.00
2019-06-23T19:29:20.350Z,23.00
2019-06-23T19:31:50.116Z,22.90
2019-06-23T19:34:20.046Z,22.90
2019-06-23T19:36:49.737Z,22.80
2019-06-23T19:39:19.166Z,22.80
2019-06-23T19:41:49.059Z,22.80
2019-06-23T19:44:20.361Z,22.80
2019-06-23T19:46:50.101Z,22.70
2019-06-23T19:49:19.046Z,22.70
2019-06-23T19:51:48.854Z,22.70
2019-06-23T19:54:18.704Z,22.60
2019-06-23T19:56:49.617Z,22.60
2019-06-23T19:59:19.430Z,22.50
2019-06-23T20:01:49.038Z,22.50
2019-06-23T20:04:18.687Z,22.50
2019-06-23T20:06:48.087Z,22.40
2019-06-23T20:09:18.039Z,22.30
2019-06-23T20:11:47.002Z,22.30
2019-06-23T20:14:26.797Z,22.20
2019-06-23T20:16:49.432Z,22.20
2019-06-23T20:19:18.905Z,22.10
2019-06-23T20:21:48.960Z,22.00
2019-06-23T20:24:18.597Z,22.00
2019-06-23T20:26:48.987Z,21.90
2019-06-23T20:29:19.168Z,21.90
2019-06-23T20:31:52.184Z,21.80
2019-06-23T20:34:23.018Z,21.80
2019-06-23T20:36:52.010Z,21.70
2019-06-23T20:39:20.953Z,21.70
2019-06-23T20:41:52.179Z,21.60
2019-06-23T20:44:23.008Z,21.60
2019-06-23T20:46:53.835Z,21.50
2019-06-23T20:49:25.091Z,21.40
2019-06-23T20:51:55.298Z,21.40
2019-06-23T20:54:24.795Z,21.30
2019-06-23T20:56:54.145Z,21.30
2019-06-23T20:59:23.350Z,21.20
2019-06-23T21:01:53.574Z,21.20
2019-06-23T21:04:22.436Z,21.10
2019-06-23T21:06:51.340Z,21.10
2019-06-23T21:09:20.268Z,21.00
2019-06-23T21:11:49.161Z,20.90
2019-06-23T21:14:18.051Z,20.90
2019-06-23T21:16:46.973Z,20.80
2019-06-23T21:19:15.857Z,20.80
2019-06-23T21:21:44.789Z,20.70
2019-06-23T21:24:13.712Z,20.70
2019-06-23T21:26:42.567Z,20.70
2019-06-23T21:29:11.494Z,20.60
2019-06-23T21:31:40.398Z,20.60
2019-06-23T21:34:09.290Z,20.60
2019-06-23T21:36:38.187Z,20.60
2019-06-23T21:39:07.507Z,20.50
2019-06-23T21:41:36.365Z,20.50
2019-06-23T21:44:05.668Z,20.40
2019-06-23T21:46:34.604Z,20.40
2019-06-23T21:49:03.510Z,20.40
2019-06-23T21:51:32.572Z,20.40
2019-06-23T21:54:02.484Z,20.40
2019-06-23T21:56:31.353Z,20.30
2019-06-23T21:59:00.259Z,20.30
2019-06-23T22:01:29.478Z,20.20
2019-06-23T22:03:59.932Z,20.20
2019-06-23T22:06:28.859Z,20.20
2019-06-23T22:08:57.726Z,20.10
2019-06-23T22:11:26.589Z,20.10
2019-06-23T22:13:55.481Z,20.00
2019-06-23T22:16:24.383Z,20.00
2019-06-23T22:18:53.301Z,20.00
2019-06-23T22:21:22.244Z,19.90
2019-06-23T22:23:52.333Z,19.90
2019-06-23T22:26:21.202Z,19.90
2019-06-23T22:28:50.319Z,19.80
2019-06-23T22:31:19.411Z,19.80
2019-06-23T22:33:48.267Z,19.70
2019-06-23T22:36:17.189Z,19.70
2019-06-23T22:38:46.107Z,19.60
2019-06-23T22:41:14.968Z,19.60
2019-06-23T22:43:43.884Z,19.60
2019-06-23T22:46:12.811Z,19.50
2019-06-23T22:48:41.680Z,19.50
2019-06-23T22:51:10.608Z,19.50
2019-06-23T22:53:40.765Z,19.40
2019-06-23T22:56:09.632Z,19.40
2019-06-23T22:58:38.540Z,19.40
2019-06-23T23:01:07.455Z,19.30
2019-06-23T23:03:36.312Z,19.30
2019-06-23T23:06:05.211Z,19.20
2019-06-23T23:08:34.118Z,19.20
2019-06-23T23:11:02.989Z,19.20
2019-06-23T23:13:31.879Z,19.10
2019-06-23T23:16:04.125Z,19.10
2019-06-23T23:18:31.336Z,19.00
2019-06-23T23:21:00.251Z,19.00
2019-06-23T23:23:29.131Z,19.00
2019-06-23T23:25:59.126Z,19.00
2019-06-23T23:28:28.040Z,18.90
2019-06-23T23:30:56.910Z,18.90
2019-06-23T23:33:25.808Z,18.90
2019-06-23T23:35:54.724Z,18.90
2019-06-23T23:38:23.623Z,18.80
2019-06-23T23:40:52.604Z,18.80
2019-06-23T23:43:21.553Z,18.80
2019-06-23T23:45:50.404Z,18.70
2019-06-23T23:48:19.306Z,18.70
2019-06-23T23:50:48.439Z,18.70
2019-06-23T23:53:17.375Z,18.60
2019-06-23T23:55:47.320Z,18.60
2019-06-23T23:58:16.227Z,18.60
